Time;durP1;ratioP1;P1;durP2;ratioP2;P2;SDS_P1;SDS_P2;PMS_P1;PMS_P2;Temp;Humidity;BMP_temperature;BMP_pressure;BME280_temperature;BME280_humidity;BME280_pressure;Samples;Min_cycle;Max_cycle;Signal;HPM_P1;HPM_P2
2023/07/09 00:01:44;;;;;;;8.45;7.53;;;22.40;99.80;;;;;;5011113;28;20049;-68
2023/07/09 00:04:11;;;;;;;10.30;7.93;;;22.30;99.60;;;;;;5012626;28;20092;-68
2023/07/09 00:06:37;;;;;;;8.93;7.95;;;22.30;99.60;;;;;;5012793;28;20084;-68
2023/07/09 00:09:04;;;;;;;11.45;8.25;;;22.20;99.90;;;;;;4995569;28;20053;-68
2023/07/09 00:11:30;;;;;;;8.93;8.13;;;22.20;99.70;;;;;;5016770;28;20045;-68
2023/07/09 00:13:56;;;;;;;10.65;7.63;;;22.10;99.90;;;;;;5016916;28;20084;-68
2023/07/09 00:16:25;;;;;;;9.25;7.05;;;22.10;99.90;;;;;;5016725;28;20475;-68
2023/07/09 00:18:51;;;;;;;8.27;7.28;;;22.00;99.90;;;;;;5016245;28;20042;-68
2023/07/09 00:21:18;;;;;;;8.98;7.47;;;22.00;99.90;;;;;;5016034;28;20443;-72
2023/07/09 00:23:44;;;;;;;8.93;7.35;;;22.00;99.90;;;;;;5016431;28;20042;-73
2023/07/09 00:26:13;;;;;;;10.73;8.57;;;22.00;99.90;;;;;;5016456;28;20481;-74
2023/07/09 00:28:39;;;;;;;9.57;8.35;;;21.90;99.90;;;;;;5016015;28;20045;-75
2023/07/09 00:31:06;;;;;;;9.80;7.65;;;21.90;99.90;;;;;;4998850;28;20052;-73
2023/07/09 00:33:31;;;;;;;10.60;8.38;;;21.80;99.90;;;;;;5015892;28;20054;-73
2023/07/09 00:35:57;;;;;;;12.43;8.30;;;21.70;99.90;;;;;;5016230;28;20080;-74
2023/07/09 00:38:24;;;;;;;10.55;9.15;;;21.70;99.90;;;;;;5015739;28;20100;-73
2023/07/09 00:41:01;;;;;;;9.50;7.78;;;21.60;99.90;;;;;;5015948;28;20057;-71
2023/07/09 00:43:34;;;;;;;9.77;8.38;;;21.60;99.90;;;;;;5015738;28;20129;-73
2023/07/09 00:46:15;;;;;;;12.45;8.05;;;21.50;99.90;;;;;;4998593;28;20495;-75
2023/07/09 00:48:42;;;;;;;8.50;7.57;;;21.50;99.90;;;;;;5015371;28;20429;-72
2023/07/09 00:51:13;;;;;;;11.88;9.60;;;21.50;99.90;;;;;;5015679;28;20057;-72
2023/07/09 00:53:45;;;;;;;10.82;8.98;;;21.50;99.90;;;;;;5015353;28;20050;-77
2023/07/09 00:56:14;;;;;;;12.00;8.77;;;21.40;99.90;;;;;;5015182;28;20072;-71
2023/07/09 00:58:47;;;;;;;11.13;8.95;;;21.40;99.90;;;;;;5015146;28;20050;-73
2023/07/09 01:01:18;;;;;;;10.45;8.50;;;21.30;99.90;;;;;;5015594;28;20256;-72
2023/07/09 01:03:58;;;;;;;9.55;8.30;;;21.20;99.90;;;;;;5015703;28;20089;-73
2023/07/09 01:06:32;;;;;;;11.25;8.95;;;21.30;99.90;;;;;;4998647;28;20111;-76
2023/07/09 01:09:00;;;;;;;10.32;8.50;;;21.30;99.90;;;;;;5015534;28;20494;-75
2023/07/09 01:11:27;;;;;;;11.80;9.32;;;21.20;99.90;;;;;;5015599;28;20049;-73
2023/07/09 01:13:55;;;;;;;15.48;9.10;;;21.20;99.90;;;;;;5015214;28;20045;-74
2023/07/09 01:16:27;;;;;;;13.80;10.68;;;21.20;99.90;;;;;;5015182;28;20042;-73
2023/07/09 01:18:53;;;;;;;10.88;9.07;;;21.60;99.90;;;;;;5015260;28;20136;-73
2023/07/09 01:21:19;;;;;;;11.88;10.25;;;21.20;99.90;;;;;;5014981;28;20070;-73
2023/07/09 01:23:48;;;;;;;14.63;9.82;;;21.10;99.90;;;;;;5015029;28;20499;-74
2023/07/09 01:26:19;;;;;;;10.48;9.43;;;21.10;99.90;;;;;;5015020;28;20057;-76
2023/07/09 01:28:45;;;;;;;13.45;10.38;;;21.00;99.90;;;;;;5015538;28;20062;-71
2023/07/09 01:31:14;;;;;;;14.52;10.27;;;21.00;99.90;;;;;;5014773;28;20479;-72
2023/07/09 01:33:44;;;;;;;10.77;9.68;;;21.00;99.90;;;;;;5014813;28;20069;-73
2023/07/09 01:36:16;;;;;;;14.15;10.00;;;21.00;99.90;;;;;;5014328;28;20435;-72
2023/07/09 01:38:43;;;;;;;13.35;11.20;;;20.90;99.90;;;;;;5015246;28;20076;-73
2023/07/09 01:41:13;;;;;;;11.38;10.20;;;20.90;99.90;;;;;;5014494;28;20492;-75
2023/07/09 01:43:41;;;;;;;14.07;11.43;;;20.80;99.90;;;;;;5015034;28;20053;-74
2023/07/09 01:46:08;;;;;;;11.23;9.95;;;20.80;99.90;;;;;;5014972;28;20561;-73
2023/07/09 01:48:40;;;;;;;16.58;11.35;;;20.70;99.90;;;;;;5014750;28;20050;-76
2023/07/09 01:51:09;;;;;;;14.50;11.80;;;20.70;99.90;;;;;;5015109;28;20064;-73
2023/07/09 01:53:37;;;;;;;13.88;12.13;;;20.60;99.90;;;;;;5015067;28;20403;-72
2023/07/09 01:56:03;;;;;;;11.77;10.52;;;20.50;99.90;;;;;;5014600;28;20061;-72
2023/07/09 01:58:30;;;;;;;12.15;10.88;;;20.50;99.90;;;;;;5013714;28;20375;-73
2023/07/09 02:00:56;;;;;;;12.65;10.10;;;20.40;99.90;;;;;;5014612;28;20081;-72
2023/07/09 02:03:24;;;;;;;11.32;9.93;;;20.40;99.90;;;;;;5014768;28;20458;-74
2023/07/09 02:05:52;;;;;;;11.05;9.93;;;20.40;99.90;;;;;;5014644;28;20042;-71
2023/07/09 02:08:18;;;;;;;12.05;10.88;;;20.40;99.90;;;;;;5014052;28;20045;-73
2023/07/09 02:10:45;;;;;;;11.45;9.75;;;20.40;99.90;;;;;;5014334;28;20061;-74
2023/07/09 02:13:11;;;;;;;13.15;11.20;;;20.40;99.90;;;;;;4996387;28;20390;-73
2023/07/09 02:15:36;;;;;;;13.88;11.13;;;20.40;99.90;;;;;;5013927;28;20046;-75
2023/07/09 02:18:02;;;;;;;15.55;11.18;;;20.40;99.90;;;;;;5014234;28;20479;-72
2023/07/09 02:20:28;;;;;;;14.07;11.55;;;20.30;99.90;;;;;;5014170;28;20053;-72
2023/07/09 02:22:54;;;;;;;12.82;11.45;;;20.30;99.90;;;;;;4996157;28;20069;-74
2023/07/09 02:25:19;;;;;;;14.13;11.13;;;20.20;99.90;;;;;;5013828;28;20450;-73
2023/07/09 02:27:45;;;;;;;15.40;11.93;;;20.20;99.90;;;;;;5013633;28;20072;-73
2023/07/09 02:30:11;;;;;;;15.63;12.60;;;20.10;99.90;;;;;;5013737;28;20050;-73
2023/07/09 02:32:37;;;;;;;13.30;12.00;;;20.10;99.90;;;;;;4980022;28;20048;-74
2023/07/09 02:35:04;;;;;;;12.02;10.07;;;20.10;99.90;;;;;;5013527;28;20077;-72
2023/07/09 02:37:30;;;;;;;11.98;10.05;;;20.10;99.90;;;;;;5013679;28;20049;-72
2023/07/09 02:39:55;;;;;;;11.55;10.35;;;20.10;99.90;;;;;;5014024;28;20467;-72
2023/07/09 02:42:22;;;;;;;11.20;10.07;;;20.10;99.90;;;;;;4996341;28;20042;-74
2023/07/09 02:44:49;;;;;;;11.07;9.98;;;20.10;99.90;;;;;;5013526;28;20050;-73
2023/07/09 02:47:15;;;;;;;11.13;9.90;;;20.00;99.90;;;;;;5013387;28;20046;-72
2023/07/09 02:49:41;;;;;;;10.27;8.93;;;20.00;99.90;;;;;;4996143;28;20052;-72
2023/07/09 02:52:07;;;;;;;12.75;9.68;;;20.00;99.90;;;;;;5013241;28;20088;-77
2023/07/09 02:54:33;;;;;;;14.68;10.25;;;20.00;99.90;;;;;;5013228;28;20045;-75
2023/07/09 02:56:59;;;;;;;10.75;9.15;;;20.00;99.90;;;;;;5013053;28;20046;-73
2023/07/09 02:59:26;;;;;;;10.93;8.75;;;19.90;99.90;;;;;;5013145;28;20140;-74
2023/07/09 03:01:52;;;;;;;12.02;9.65;;;19.90;99.90;;;;;;5013233;28;20050;-73
2023/07/09 03:04:20;;;;;;;10.20;8.77;;;19.90;99.90;;;;;;5013279;28;20050;-73
2023/07/09 03:06:46;;;;;;;10.90;9.43;;;19.90;99.90;;;;;;5012946;28;20064;-74
2023/07/09 03:09:11;;;;;;;9.45;8.43;;;19.80;99.90;;;;;;5013526;28;20396;-73
2023/07/09 03:11:37;;;;;;;11.35;9.77;;;19.80;99.90;;;;;;5012911;28;20462;-74
2023/07/09 03:14:03;;;;;;;9.90;8.48;;;19.70;99.90;;;;;;5013016;28;20042;-75
2023/07/09 03:16:31;;;;;;;10.32;9.30;;;19.70;99.90;;;;;;5012819;28;20089;-73
2023/07/09 03:18:58;;;;;;;10.77;9.43;;;19.60;99.90;;;;;;5013803;28;20046;-73
2023/07/09 03:21:25;;;;;;;12.70;10.50;;;19.60;99.90;;;;;;5014005;28;20057;-75
2023/07/09 03:23:51;;;;;;;11.63;10.52;;;19.60;99.90;;;;;;5014282;28;20466;-72
2023/07/09 03:26:17;;;;;;;10.95;8.68;;;19.60;99.90;;;;;;4995965;28;20041;-72
2023/07/09 03:28:43;;;;;;;10.38;9.02;;;19.50;99.90;;;;;;5013101;28;20060;-74
2023/07/09 03:31:09;;;;;;;10.73;9.63;;;19.50;99.90;;;;;;5012910;28;20188;-76
2023/07/09 03:33:34;;;;;;;11.32;9.77;;;19.50;99.90;;;;;;5012722;28;20053;-73
2023/07/09 03:36:00;;;;;;;11.05;9.95;;;19.50;99.90;;;;;;5012476;28;20038;-73
2023/07/09 03:38:26;;;;;;;11.55;10.35;;;19.60;99.90;;;;;;5013222;28;20475;-71
2023/07/09 03:40:55;;;;;;;11.98;10.82;;;19.60;99.90;;;;;;5012759;28;20068;-73
2023/07/09 03:43:22;;;;;;;11.63;10.45;;;19.60;99.90;;;;;;5012600;28;20088;-72
2023/07/09 03:45:48;;;;;;;13.93;10.95;;;19.60;99.90;;;;;;5012086;28;20045;-72
2023/07/09 03:48:16;;;;;;;11.95;10.75;;;19.50;99.90;;;;;;5013035;28;20046;-74
2023/07/09 03:50:44;;;;;;;14.73;12.35;;;19.60;99.90;;;;;;5013199;28;20072;-74
2023/07/09 03:53:10;;;;;;;14.75;12.45;;;19.60;99.90;;;;;;5012587;28;20042;-73
2023/07/09 03:55:35;;;;;;;12.88;11.50;;;19.50;99.90;;;;;;5012693;28;20048;-75
2023/07/09 03:58:04;;;;;;;16.40;12.52;;;19.50;99.90;;;;;;5012225;28;20500;-73
2023/07/09 04:00:30;;;;;;;14.57;12.10;;;19.40;99.90;;;;;;4994205;28;20424;-74
2023/07/09 04:02:56;;;;;;;12.77;10.73;;;19.40;99.90;;;;;;5012262;28;20053;-73
2023/07/09 04:05:26;;;;;;;11.88;10.38;;;19.40;99.90;;;;;;5012366;28;20038;-74
2023/07/09 04:07:52;;;;;;;15.43;11.90;;;19.40;99.90;;;;;;5012307;28;20046;-74
2023/07/09 04:10:19;;;;;;;14.00;12.13;;;19.40;99.90;;;;;;5012573;28;20053;-73
2023/07/09 04:12:44;;;;;;;11.98;10.02;;;19.40;99.90;;;;;;5012282;28;20507;-75
2023/07/09 04:15:12;;;;;;;11.73;10.07;;;19.50;99.90;;;;;;4995360;28;20064;-73
2023/07/09 04:17:39;;;;;;;9.32;8.38;;;19.50;99.90;;;;;;5012269;28;20125;-73
2023/07/09 04:20:07;;;;;;;12.05;10.90;;;19.60;99.90;;;;;;4995295;28;20053;-73
2023/07/09 04:22:34;;;;;;;12.90;11.52;;;19.60;99.90;;;;;;5012218;28;20053;-74
2023/07/09 04:24:59;;;;;;;11.13;9.88;;;19.70;99.90;;;;;;5012393;28;20057;-73
2023/07/09 04:27:28;;;;;;;11.77;10.55;;;19.70;99.90;;;;;;5012523;28;20054;-73
2023/07/09 04:29:54;;;;;;;11.60;10.40;;;19.80;99.90;;;;;;5012274;28;20525;-74
2023/07/09 04:32:20;;;;;;;11.05;9.75;;;19.80;99.90;;;;;;5012427;28;20052;-74
2023/07/09 04:34:46;;;;;;;13.88;10.45;;;19.80;99.90;;;;;;5012196;28;20061;-77
2023/07/09 04:37:13;;;;;;;11.85;10.57;;;19.90;99.90;;;;;;5012443;28;20101;-75
2023/07/09 04:39:39;;;;;;;11.35;10.20;;;19.90;99.90;;;;;;5011814;28;20378;-75
2023/07/09 04:42:10;;;;;;;11.25;9.57;;;19.90;99.90;;;;;;5012301;28;20050;-75
2023/07/09 04:44:36;;;;;;;11.05;9.02;;;20.00;99.90;;;;;;5012365;28;20053;-77
2023/07/09 04:47:01;;;;;;;11.32;10.13;;;20.00;99.90;;;;;;5012116;28;20049;-71
2023/07/09 04:49:27;;;;;;;15.13;10.93;;;20.10;99.90;;;;;;5012726;28;20459;-75
2023/07/09 04:51:54;;;;;;;8.55;7.65;;;20.10;99.90;;;;;;5012147;28;20085;-76
2023/07/09 04:54:22;;;;;;;10.75;9.63;;;20.20;99.90;;;;;;5011917;28;20159;-72
2023/07/09 04:56:48;;;;;;;13.10;9.98;;;20.20;99.90;;;;;;5014707;28;20053;-72
2023/07/09 04:59:14;;;;;;;12.00;9.95;;;20.30;99.90;;;;;;5015270;28;20054;-72
2023/07/09 05:01:41;;;;;;;10.60;9.30;;;20.30;99.90;;;;;;5015544;28;20045;-74
2023/07/09 05:04:07;;;;;;;10.77;9.27;;;20.30;99.90;;;;;;5015957;28;20046;-74
2023/07/09 05:06:34;;;;;;;10.43;9.38;;;20.40;99.90;;;;;;5015324;28;20052;-72
2023/07/09 05:08:59;;;;;;;10.45;9.15;;;20.50;99.90;;;;;;5015366;28;20050;-71
2023/07/09 05:11:25;;;;;;;11.20;8.98;;;20.60;99.90;;;;;;5015734;28;20041;-72
2023/07/09 05:13:51;;;;;;;11.43;9.13;;;20.70;99.90;;;;;;5015444;28;20409;-76
2023/07/09 05:16:16;;;;;;;10.55;8.48;;;20.80;99.90;;;;;;5015232;28;20049;-71
2023/07/09 05:18:42;;;;;;;11.07;9.88;;;20.90;99.90;;;;;;5015279;28;20454;-74
2023/07/09 05:21:08;;;;;;;11.48;9.18;;;21.00;99.90;;;;;;5015132;28;20046;-72
2023/07/09 05:23:34;;;;;;;9.77;8.48;;;21.10;99.90;;;;;;5015176;28;20056;-72
2023/07/09 05:26:01;;;;;;;9.45;8.55;;;21.20;99.90;;;;;;5015292;28;20050;-73
2023/07/09 05:28:28;;;;;;;11.82;10.20;;;21.20;99.90;;;;;;5015089;28;20050;-75
2023/07/09 05:30:54;;;;;;;10.38;9.27;;;21.30;99.90;;;;;;5013727;28;20057;-74
2023/07/09 05:33:20;;;;;;;10.52;9.43;;;20.80;99.90;;;;;;5015169;28;20050;-74
2023/07/09 05:35:46;;;;;;;13.27;10.32;;;21.60;99.90;;;;;;5014707;28;20055;-72
2023/07/09 05:38:13;;;;;;;10.35;8.88;;;21.70;99.90;;;;;;4997950;28;20539;-74
2023/07/09 05:40:39;;;;;;;13.13;9.48;;;21.80;99.90;;;;;;5015081;28;20045;-73
2023/07/09 05:43:05;;;;;;;10.45;9.45;;;22.00;99.90;;;;;;5014822;28;20081;-73
2023/07/09 05:45:31;;;;;;;10.68;8.90;;;22.00;99.90;;;;;;5014619;28;20125;-75
2023/07/09 05:48:00;;;;;;;10.77;9.68;;;22.20;99.90;;;;;;5014721;28;20081;-73
2023/07/09 05:50:28;;;;;;;11.07;9.43;;;22.40;99.90;;;;;;4997346;28;20049;-72
2023/07/09 05:52:54;;;;;;;9.20;8.27;;;22.50;99.90;;;;;;5014924;28;20053;-74
2023/07/09 05:55:20;;;;;;;11.10;9.75;;;22.60;99.90;;;;;;4997418;28;20053;-77
2023/07/09 05:57:46;;;;;;;9.15;8.13;;;22.80;99.90;;;;;;5014555;28;20068;-73
2023/07/09 06:00:12;;;;;;;11.93;9.45;;;22.90;99.90;;;;;;5014392;28;20070;-74
2023/07/09 06:02:38;;;;;;;9.45;8.50;;;22.90;99.90;;;;;;4997642;28;20068;-71
2023/07/09 06:05:05;;;;;;;9.52;8.50;;;23.00;99.90;;;;;;5014109;28;20465;-75
2023/07/09 06:07:31;;;;;;;11.23;9.35;;;23.00;99.90;;;;;;5013767;28;20058;-72
2023/07/09 06:09:57;;;;;;;9.45;8.52;;;23.00;99.90;;;;;;4996881;28;20042;-75
2023/07/09 06:12:23;;;;;;;12.18;9.95;;;23.00;99.90;;;;;;5014250;28;20113;-73
2023/07/09 06:14:49;;;;;;;9.98;9.00;;;23.00;99.90;;;;;;5014033;28;20046;-76
2023/07/09 06:17:14;;;;;;;11.23;9.70;;;23.00;99.90;;;;;;4997013;28;20518;-72
2023/07/09 06:19:40;;;;;;;11.70;9.95;;;23.00;99.90;;;;;;5013900;28;20042;-74
2023/07/09 06:22:06;;;;;;;10.20;9.15;;;23.10;99.90;;;;;;5014041;28;20052;-76
2023/07/09 06:24:32;;;;;;;13.43;9.70;;;23.10;99.90;;;;;;5013883;28;20096;-73
2023/07/09 06:26:59;;;;;;;11.98;9.27;;;23.20;99.90;;;;;;4996907;28;20052;-77
2023/07/09 06:29:24;;;;;;;11.60;10.25;;;23.30;99.90;;;;;;5014467;28;20069;-74
2023/07/09 06:31:50;;;;;;;14.20;9.63;;;23.60;99.90;;;;;;5013424;28;20463;-74
2023/07/09 06:34:16;;;;;;;12.60;9.93;;;24.00;99.90;;;;;;5013662;28;20048;-72
2023/07/09 06:36:42;;;;;;;10.70;9.68;;;24.50;99.90;;;;;;4996422;28;20117;-74
2023/07/09 06:39:07;;;;;;;10.77;9.32;;;25.30;99.90;;;;;;5013553;28;20049;-73
2023/07/09 06:41:38;;;;;;;12.77;9.93;;;26.10;99.90;;;;;;5013521;28;20452;-74
2023/07/09 06:44:08;;;;;;;10.38;8.68;;;26.80;99.90;;;;;;5013171;28;20491;-76
2023/07/09 06:46:34;;;;;;;12.25;9.40;;;27.40;99.60;;;;;;4996002;28;20050;-71
2023/07/09 06:49:01;;;;;;;10.90;9.20;;;27.90;97.60;;;;;;4996037;28;20133;-73
2023/07/09 06:51:27;;;;;;;13.55;8.57;;;28.40;96.40;;;;;;5013780;28;20061;-74
2023/07/09 06:53:52;;;;;;;11.57;8.50;;;28.70;95.70;;;;;;5013709;28;20042;-75
2023/07/09 06:56:18;;;;;;;12.65;8.73;;;29.00;95.10;;;;;;5013502;28;20423;-75
2023/07/09 06:58:45;;;;;;;9.73;8.73;;;29.40;94.50;;;;;;5013417;28;20108;-73
2023/07/09 07:01:12;;;;;;;10.07;8.90;;;29.80;94.20;;;;;;5012484;28;20479;-74
2023/07/09 07:03:39;;;;;;;11.50;8.70;;;30.10;93.70;;;;;;5012997;28;20061;-72
2023/07/09 07:06:06;;;;;;;10.80;8.27;;;30.50;93.30;;;;;;5013034;28;20443;-73
2023/07/09 07:08:32;;;;;;;9.02;7.80;;;31.00;92.90;;;;;;5012943;28;20053;-74
2023/07/09 07:11:03;;;;;;;8.40;7.50;;;31.10;92.50;;;;;;4998045;28;20053;-73
2023/07/09 07:13:31;;;;;;;10.07;8.27;;;30.90;91.90;;;;;;5016215;28;20474;-75
2023/07/09 07:15:57;;;;;;;9.70;7.75;;;30.80;92.10;;;;;;5016222;28;20103;-74
2023/07/09 07:18:23;;;;;;;9.85;7.43;;;30.90;92.10;;;;;;5015126;28;20133;-73
2023/07/09 07:20:49;;;;;;;8.70;7.00;;;31.30;91.90;;;;;;5013255;28;20053;-77
2023/07/09 07:23:15;;;;;;;9.02;6.80;;;31.90;91.40;;;;;;5012764;28;20049;-74
2023/07/09 07:25:41;;;;;;;11.00;7.28;;;32.50;91.20;;;;;;5012843;28;20041;-75
2023/07/09 07:28:07;;;;;;;14.07;7.22;;;32.70;90.70;;;;;;5013270;28;20101;-74
2023/07/09 07:30:32;;;;;;;8.43;7.28;;;32.70;90.30;;;;;;5012918;28;20470;-74
2023/07/09 07:32:59;;;;;;;8.05;7.25;;;32.60;90.00;;;;;;5012762;28;20443;-73
2023/07/09 07:35:24;;;;;;;10.90;7.72;;;32.90;89.90;;;;;;5012667;28;20107;-74
2023/07/09 07:37:50;;;;;;;8.25;6.90;;;32.80;89.60;;;;;;5012542;28;20106;-72
2023/07/09 07:40:15;;;;;;;10.30;7.80;;;32.50;89.90;;;;;;5012708;28;20046;-73
2023/07/09 07:42:41;;;;;;;7.93;6.90;;;32.30;90.00;;;;;;5013052;28;20125;-72
2023/07/09 07:45:08;;;;;;;8.93;7.50;;;32.10;90.10;;;;;;5012666;28;20046;-72
2023/07/09 07:47:34;;;;;;;10.00;7.80;;;32.30;90.30;;;;;;5012397;28;20046;-73
2023/07/09 07:49:59;;;;;;;9.38;7.57;;;32.10;90.10;;;;;;5012908;28;20103;-72
2023/07/09 07:52:25;;;;;;;9.48;7.45;;;32.20;90.00;;;;;;5012671;28;20073;-72
2023/07/09 07:54:52;;;;;;;12.15;7.70;;;32.60;90.00;;;;;;5012947;28;20042;-72
2023/07/09 07:57:18;;;;;;;8.73;7.05;;;33.10;89.80;;;;;;5012481;28;20094;-73
2023/07/09 07:59:46;;;;;;;10.68;7.10;;;33.60;89.30;;;;;;4995053;28;20108;-72
2023/07/09 08:02:13;;;;;;;8.93;6.40;;;33.90;88.70;;;;;;5012387;28;20065;-73
2023/07/09 08:04:40;;;;;;;10.40;6.70;;;34.20;88.20;;;;;;4995045;28;20054;-74
2023/07/09 08:07:08;;;;;;;9.10;7.30;;;34.70;87.60;;;;;;5012303;28;20088;-72
2023/07/09 08:09:34;;;;;;;7.50;6.72;;;34.90;87.50;;;;;;4995565;28;20042;-73
2023/07/09 08:12:01;;;;;;;8.85;6.32;;;34.70;86.60;;;;;;5012550;28;20045;-72
2023/07/09 08:14:27;;;;;;;8.40;7.22;;;34.80;85.50;;;;;;5012677;28;20054;-72
2023/07/09 08:16:52;;;;;;;10.02;6.90;;;34.70;85.30;;;;;;5011893;28;20049;-72
2023/07/09 08:19:19;;;;;;;8.68;6.47;;;35.00;84.80;;;;;;5012426;28;20053;-72
2023/07/09 08:21:45;;;;;;;7.63;6.95;;;35.40;84.90;;;;;;5012379;28;20065;-72
2023/07/09 08:24:12;;;;;;;8.32;6.28;;;35.70;84.20;;;;;;5011999;28;20116;-72
2023/07/09 08:26:37;;;;;;;10.63;6.93;;;36.00;84.10;;;;;;5012154;28;20056;-71
2023/07/09 08:29:03;;;;;;;8.98;6.82;;;36.20;83.30;;;;;;5012082;28;20475;-73
2023/07/09 08:31:29;;;;;;;10.90;7.00;;;36.10;83.00;;;;;;5014750;28;20129;-71
2023/07/09 08:33:55;;;;;;;10.40;6.78;;;36.10;82.60;;;;;;5016391;28;20056;-77
2023/07/09 08:36:20;;;;;;;8.88;6.70;;;36.10;82.60;;;;;;4998390;28;20451;-75
2023/07/09 08:38:46;;;;;;;8.85;5.65;;;35.80;82.60;;;;;;4998404;28;20076;-76
2023/07/09 08:41:42;;;;;;;10.57;6.80;;;35.80;83.40;;;;;;5015812;28;20046;-74
2023/07/09 08:44:34;;;;;;;12.23;7.13;;;35.90;80.90;;;;;;5016352;28;20081;-74
2023/07/09 08:47:31;;;;;;;6.80;6.10;;;35.90;80.50;;;;;;5015832;28;20057;-73
2023/07/09 08:50:00;;;;;;;8.43;6.90;;;35.80;81.00;;;;;;5015387;28;20056;-75
2023/07/09 08:52:44;;;;;;;8.68;6.53;;;35.70;80.60;;;;;;5015679;28;20064;-74
2023/07/09 08:55:15;;;;;;;7.80;6.22;;;35.80;80.10;;;;;;5015711;28;20048;-78
2023/07/09 08:57:54;;;;;;;9.98;6.45;;;36.00;81.20;;;;;;5015987;28;20121;-79
2023/07/09 09:00:34;;;;;;;7.60;6.05;;;36.10;81.40;;;;;;5015594;28;20100;-79
2023/07/09 09:03:10;;;;;;;8.20;5.95;;;36.30;79.80;;;;;;4995282;28;20090;-77
2023/07/09 09:05:42;;;;;;;9.25;5.93;;;36.10;80.90;;;;;;4994902;28;20053;-79
2023/07/09 09:08:36;;;;;;;7.65;5.90;;;36.30;80.20;;;;;;4996225;28;20042;-79
2023/07/09 09:11:21;;;;;;;8.25;6.35;;;36.70;79.50;;;;;;4996021;28;20049;-81
2023/07/09 09:13:51;;;;;;;7.50;5.90;;;37.00;80.70;;;;;;4995370;28;20072;-79
2023/07/09 09:16:39;;;;;;;12.13;5.65;;;36.90;80.20;;;;;;4994629;28;20050;-85
2023/07/09 09:19:18;;;;;;;8.63;5.93;;;37.00;78.10;;;;;;4996377;28;20077;-83
2023/07/09 09:21:44;;;;;;;8.20;6.70;;;36.80;78.80;;;;;;4995111;28;20057;-83
2023/07/09 09:24:20;;;;;;;6.82;6.03;;;36.90;79.80;;;;;;5010619;28;20134;-86
2023/07/09 09:26:48;;;;;;;7.03;6.32;;;37.10;78.40;;;;;;4978928;28;20488;-82
2023/07/09 09:29:15;;;;;;;10.75;6.57;;;37.00;79.00;;;;;;4995450;28;20057;-86
2023/07/09 09:31:44;;;;;;;7.93;5.80;;;36.70;79.40;;;;;;4994474;28;20061;-83
2023/07/09 09:34:22;;;;;;;7.60;6.72;;;36.90;79.70;;;;;;4977836;28;20109;-84
2023/07/09 09:36:48;;;;;;;8.23;6.10;;;37.10;78.60;;;;;;4995752;28;20038;-85
2023/07/09 09:39:14;;;;;;;8.02;6.03;;;37.10;79.10;;;;;;4995189;28;20101;-84
2023/07/09 09:41:42;;;;;;;9.75;6.53;;;36.90;78.80;;;;;;4994819;28;20050;-87
2023/07/09 09:44:27;;;;;;;7.68;6.38;;;36.80;78.90;;;;;;4994124;28;20086;-84
2023/07/09 09:46:55;;;;;;;8.38;5.45;;;36.90;77.90;;;;;;4994491;28;20442;-85
2023/07/09 09:49:21;;;;;;;15.10;6.38;;;37.10;78.80;;;;;;4995187;28;20042;-83
2023/07/09 09:51:47;;;;;;;9.63;6.32;;;37.20;77.80;;;;;;5010169;28;20101;-85
2023/07/09 09:54:20;;;;;;;8.65;5.82;;;37.10;78.20;;;;;;4994102;28;20466;-81
2023/07/09 09:56:48;;;;;;;7.85;5.25;;;37.20;77.70;;;;;;4994976;28;20447;-75
2023/07/09 09:59:20;;;;;;;7.78;5.88;;;37.20;78.10;;;;;;4994973;28;20074;-76
2023/07/09 10:01:46;;;;;;;8.13;6.55;;;37.50;77.40;;;;;;5002871;28;20140;-77
2023/07/09 10:04:18;;;;;;;7.10;5.30;;;37.40;77.90;;;;;;5014558;28;20060;-76
2023/07/09 10:06:48;;;;;;;7.93;6.10;;;37.60;77.40;;;;;;5014111;28;20038;-75
2023/07/09 10:09:33;;;;;;;7.60;5.53;;;37.70;77.50;;;;;;5014293;28;20050;-76
2023/07/09 10:12:17;;;;;;;6.57;5.47;;;37.80;76.50;;;;;;5014149;28;20054;-75
2023/07/09 10:15:26;;;;;;;6.80;5.70;;;37.60;77.60;;;;;;5013869;28;20046;-75
2023/07/09 10:17:57;;;;;;;7.60;5.60;;;38.00;77.00;;;;;;4986949;28;20077;-75
2023/07/09 10:20:29;;;;;;;7.07;6.03;;;38.30;77.40;;;;;;4996489;28;20049;-76
2023/07/09 10:23:14;;;;;;;9.57;6.65;;;38.20;75.50;;;;;;5013936;28;20042;-76
2023/07/09 10:25:45;;;;;;;10.70;5.93;;;38.10;74.90;;;;;;4980661;28;20054;-76
2023/07/09 10:28:14;;;;;;;8.93;6.32;;;38.00;76.80;;;;;;5013825;28;20117;-76
2023/07/09 10:31:00;;;;;;;10.38;6.00;;;37.80;76.50;;;;;;4996422;28;20054;-75
2023/07/09 10:34:04;;;;;;;7.03;5.43;;;37.60;76.10;;;;;;5013941;28;20054;-75
2023/07/09 10:36:45;;;;;;;7.55;6.30;;;37.50;76.30;;;;;;4998697;28;20061;-77
2023/07/09 10:39:20;;;;;;;9.02;5.38;;;37.50;76.50;;;;;;4996492;28;20148;-75
2023/07/09 10:41:49;;;;;;;8.05;6.10;;;37.60;76.70;;;;;;4996491;28;20046;-76
2023/07/09 10:44:34;;;;;;;8.55;6.18;;;37.80;77.10;;;;;;4996205;28;20385;-76
2023/07/09 10:47:07;;;;;;;7.60;6.47;;;37.90;77.20;;;;;;5013498;28;20050;-77
2023/07/09 10:49:37;;;;;;;16.50;6.85;;;37.40;76.90;;;;;;5013938;28;20050;-77
2023/07/09 10:52:29;;;;;;;7.22;5.70;;;36.70;77.50;;;;;;5013339;28;20053;-77
2023/07/09 10:55:21;;;;;;;10.63;6.45;;;36.80;77.70;;;;;;5013195;28;20060;-76
2023/07/09 10:57:57;;;;;;;;;;;36.80;78.50;;;;;;5014215;28;20042;-76
2023/07/09 11:00:38;;;;;;;8.55;5.38;;;36.50;77.60;;;;;;4996352;28;19925;-75
2023/07/09 11:03:33;;;;;;;7.63;5.47;;;36.20;78.30;;;;;;5014536;28;20058;-75
2023/07/09 11:05:59;;;;;;;8.23;6.90;;;36.00;78.90;;;;;;5014551;28;20046;-75
2023/07/09 11:08:34;;;;;;;7.45;6.55;;;35.70;78.90;;;;;;5013907;28;20052;-77
2023/07/09 11:11:10;;;;;;;8.93;5.97;;;35.60;78.60;;;;;;5014097;28;20125;-75
2023/07/09 11:13:54;;;;;;;9.82;6.75;;;35.50;79.00;;;;;;4996291;28;20405;-75
2023/07/09 11:16:41;;;;;;;9.48;7.03;;;35.10;78.70;;;;;;5013364;28;20045;-75
2023/07/09 11:19:16;;;;;;;9.10;6.93;;;35.20;79.80;;;;;;5013770;28;20083;-74
2023/07/09 11:21:59;;;;;;;8.23;7.00;;;35.20;79.20;;;;;;5013434;28;20097;-76
2023/07/09 11:24:36;;;;;;;8.32;7.25;;;35.00;79.60;;;;;;5013267;28;20042;-77
2023/07/09 11:27:02;;;;;;;10.50;6.95;;;34.90;79.00;;;;;;4995795;28;20085;-77
2023/07/09 11:29:28;;;;;;;11.45;7.90;;;34.90;79.90;;;;;;4995842;28;20053;-76
2023/07/09 11:31:55;;;;;;;9.43;6.65;;;35.00;79.40;;;;;;4979709;28;20451;-76
2023/07/09 11:34:28;;;;;;;8.07;6.50;;;35.00;78.90;;;;;;5012888;28;20046;-76
2023/07/09 11:37:01;;;;;;;8.13;6.78;;;35.00;79.40;;;;;;5012953;28;20125;-75
2023/07/09 11:39:32;;;;;;;8.50;7.35;;;34.90;78.80;;;;;;5012664;28;20046;-76
2023/07/09 11:41:58;;;;;;;8.07;7.20;;;34.70;79.20;;;;;;4995727;28;20060;-76
2023/07/09 11:44:25;;;;;;;8.07;6.43;;;34.70;79.10;;;;;;5012432;28;20046;-75
2023/07/09 11:47:33;;;;;;;6.82;6.10;;;34.80;79.00;;;;;;4994942;28;20057;-77
2023/07/09 11:50:29;;;;;;;10.57;7.05;;;34.70;79.80;;;;;;4971200;28;20047;-75
2023/07/09 11:53:03;;;;;;;8.77;6.95;;;34.80;78.90;;;;;;4979255;28;20127;-76
2023/07/09 11:55:47;;;;;;;9.27;7.05;;;34.50;79.40;;;;;;4995854;28;20046;-76
2023/07/09 11:58:16;;;;;;;9.10;7.35;;;34.40;80.40;;;;;;5012959;28;20095;-75
2023/07/09 12:00:50;;;;;;;8.30;6.28;;;34.40;80.00;;;;;;5012538;28;20046;-77
2023/07/09 12:03:27;;;;;;;8.05;6.22;;;34.40;81.60;;;;;;4994914;28;20076;-76
2023/07/09 12:05:55;;;;;;;7.40;6.40;;;34.30;81.00;;;;;;5011638;28;20091;-75
2023/07/09 12:08:27;;;;;;;6.95;6.18;;;34.20;80.30;;;;;;4994791;28;20054;-74
2023/07/09 12:10:53;;;;;;;7.32;6.40;;;34.50;80.60;;;;;;5012439;28;20125;-75
2023/07/09 12:13:19;;;;;;;7.03;6.32;;;34.70;80.10;;;;;;4994546;28;20061;-75
2023/07/09 12:15:44;;;;;;;8.68;6.93;;;34.60;79.50;;;;;;5012239;28;20045;-74
2023/07/09 12:18:14;;;;;;;8.10;6.20;;;34.50;80.00;;;;;;5011884;28;20046;-74
2023/07/09 12:20:41;;;;;;;11.02;7.18;;;34.80;79.80;;;;;;4979102;28;20068;-74
2023/07/09 12:23:31;;;;;;;8.40;6.68;;;34.60;80.00;;;;;;4994530;28;20058;-75
2023/07/09 12:26:00;;;;;;;8.38;6.93;;;34.50;79.60;;;;;;5011958;28;20107;-76
2023/07/09 12:28:28;;;;;;;9.52;6.93;;;34.20;80.40;;;;;;5010998;28;20096;-74
2023/07/09 12:30:54;;;;;;;8.07;6.00;;;34.20;80.40;;;;;;4994888;28;20137;-74
2023/07/09 12:33:25;;;;;;;9.00;6.50;;;34.20;80.50;;;;;;5012571;28;20053;-75
2023/07/09 12:36:00;;;;;;;8.95;7.35;;;34.50;80.60;;;;;;5012295;28;20073;-74
2023/07/09 12:38:32;;;;;;;7.70;6.90;;;34.50;80.20;;;;;;5012368;28;20050;-75
2023/07/09 12:41:00;;;;;;;7.60;6.20;;;34.70;80.10;;;;;;4994575;28;20107;-74
2023/07/09 12:43:30;;;;;;;8.18;6.82;;;34.80;80.00;;;;;;5011810;28;20050;-75
2023/07/09 12:45:59;;;;;;;10.52;6.55;;;35.00;80.20;;;;;;5011890;28;20467;-74
2023/07/09 12:48:26;;;;;;;9.40;6.43;;;34.90;79.50;;;;;;4994412;28;20053;-75
2023/07/09 12:50:56;;;;;;;7.55;6.70;;;35.00;79.00;;;;;;5011936;28;20049;-75
2023/07/09 12:53:26;;;;;;;8.93;6.70;;;34.90;79.40;;;;;;5011652;28;20053;-74